National Geographic Sea Lion — WUR9646 — position and weather

sailwx.info

Track history (hours):
 
Tides and Currents Weather Stations Pressure Air Temp Water Temp Dewpoint Dewpoint Depression Visibility Wind Speed Wind Dir Waves Ship Positions

National Geographic Sea Lion

Owner: Lindblad Expeditions, Inc., SEATTLE, WA. More information available from US FCC via Universal Licensing System and Coast Guard Vessel Documentation Center.

Last reported at 2017-Jul-27 02:30 UTC. Time now 2017-Jul-27 02:36 UTC.
Position N 58°41' W 136°19'.

Length 45 m; draft 2.4 m.

Type: Passenger vessel. MMSI: 366396000.

Date/timePositionNaut miles runAvg speedWind from/ knotsBaromVisibWave heightAir tempDewpointWater temp
2017-Jul-27 02:30N 58°41' W 136°19'0 0.4
2017-Jul-27 01:21N 58°41' W 136°20'5 0.7
2017-Jul-26 18:00N 58°45' W 136°15'0 0.7
2017-Jul-26 17:30N 58°45' W 136°14'4 7.8
2017-Jul-26 17:00N 58°42' W 136°10'5 9.2
2017-Jul-26 16:30N 58°39' W 136°03'1 2.2
2017-Jul-26 16:00N 58°38' W 136°02'5 9.6
2017-Jul-26 15:30N 58°33' W 136°03'4 7.9
2017-Jul-26 15:00N 58°29' W 136°03'5 5.1
2017-Jul-26 14:00N 58°27' W 135°53'0 0.2
2017-Jul-26 13:29N 58°27' W 135°53'0 0.9
2017-Jul-26 13:00N 58°27' W 135°54'4 8.0
2017-Jul-26 12:30N 58°24' W 135°58'4 8.5
2017-Jul-26 12:00N 58°20' W 136°00'2 2.8
2017-Jul-26 11:16N 58°18' W 136°01'0 0.0
2017-Jul-26 10:58N 58°18' W 136°01'0 0.1
2017-Jul-26 10:19N 58°18' W 136°01'0 0.1
2017-Jul-26 09:58N 58°18' W 136°01'0 0.0
2017-Jul-26 09:22N 58°18' W 136°01'0 0.0
2017-Jul-26 08:55N 58°18' W 136°01'0 0.0
2017-Jul-26 08:28N 58°18' W 136°01'0 0.0
2017-Jul-26 07:55N 58°18' W 136°01'0 0.0
2017-Jul-26 07:28N 58°18' W 136°01'0 0.1
2017-Jul-26 06:58N 58°18' W 136°01'0 0.1
2017-Jul-26 06:28N 58°18' W 136°01'2 4.0
2017-Jul-26 06:00N 58°18' W 135°58'1 1.4
2017-Jul-26 05:30N 58°17' W 135°59'1 2.7
2017-Jul-26 05:00N 58°16' W 135°59'4 8.0
2017-Jul-26 04:30N 58°15' W 136°06'4 7.8
2017-Jul-26 04:00N 58°13' W 136°13'0 0.9
2017-Jul-26 03:29N 58°13' W 136°14'0 0.9
2017-Jul-26 02:59N 58°13' W 136°15'  
Track history (hours):
 
Tides and Currents Weather Stations Pressure Air Temp Water Temp Dewpoint Dewpoint Depression Visibility Wind Speed Wind Dir Waves Ship Positions

National Geographic Sea Lion

Owner: Lindblad Expeditions, Inc., SEATTLE, WA. More information available from US FCC via Universal Licensing System and Coast Guard Vessel Documentation Center.

Last reported at 2017-Jul-27 02:30 UTC. Time now 2017-Jul-27 02:36 UTC.
Position N 58°41' W 136°19'.

Length 45 m; draft 2.4 m.

Type: Passenger vessel. MMSI: 366396000.

Date/timePositionNaut miles runAvg speedWind from/ knotsBaromVisibWave heightAir tempDewpointWater temp
2017-Jul-27 02:30N 58°41' W 136°19'0 0.4
2017-Jul-27 01:21N 58°41' W 136°20'5 0.7
2017-Jul-26 18:00N 58°45' W 136°15'0 0.7
2017-Jul-26 17:30N 58°45' W 136°14'4 7.8
2017-Jul-26 17:00N 58°42' W 136°10'5 9.2
2017-Jul-26 16:30N 58°39' W 136°03'1 2.2
2017-Jul-26 16:00N 58°38' W 136°02'5 9.6
2017-Jul-26 15:30N 58°33' W 136°03'4 7.9
2017-Jul-26 15:00N 58°29' W 136°03'5 5.1
2017-Jul-26 14:00N 58°27' W 135°53'0 0.2
2017-Jul-26 13:29N 58°27' W 135°53'0 0.9
2017-Jul-26 13:00N 58°27' W 135°54'4 8.0
2017-Jul-26 12:30N 58°24' W 135°58'4 8.5
2017-Jul-26 12:00N 58°20' W 136°00'2 2.8
2017-Jul-26 11:16N 58°18' W 136°01'0 0.0
2017-Jul-26 10:58N 58°18' W 136°01'0 0.1
2017-Jul-26 10:19N 58°18' W 136°01'0 0.1
2017-Jul-26 09:58N 58°18' W 136°01'0 0.0
2017-Jul-26 09:22N 58°18' W 136°01'0 0.0
2017-Jul-26 08:55N 58°18' W 136°01'0 0.0
2017-Jul-26 08:28N 58°18' W 136°01'0 0.0
2017-Jul-26 07:55N 58°18' W 136°01'0 0.0
2017-Jul-26 07:28N 58°18' W 136°01'0 0.1
2017-Jul-26 06:58N 58°18' W 136°01'0 0.1
2017-Jul-26 06:28N 58°18' W 136°01'2 4.0
2017-Jul-26 06:00N 58°18' W 135°58'1 1.4
2017-Jul-26 05:30N 58°17' W 135°59'1 2.7
2017-Jul-26 05:00N 58°16' W 135°59'4 8.0
2017-Jul-26 04:30N 58°15' W 136°06'4 7.8
2017-Jul-26 04:00N 58°13' W 136°13'0 0.9
2017-Jul-26 03:29N 58°13' W 136°14'0 0.9
2017-Jul-26 02:59N 58°13' W 136°15'  

Dump ship's entire track history